Time;durP1;ratioP1;P1;durP2;ratioP2;P2;SDS_P1;SDS_P2;PMS_P1;PMS_P2;Temp;Humidity;BMP_temperature;BMP_pressure;BME280_temperature;BME280_humidity;BME280_pressure;Samples;Min_cycle;Max_cycle;Signal;HPM_P1;HPM_P2
2022/12/06 00:02:10;;;;;;;75.07;13.25;;;3.50;99.90;;;;;;5063226;22;20239;-86
2022/12/06 00:04:36;;;;;;;71.77;11.53;;;3.40;99.90;;;;;;5042643;28;20161;-86
2022/12/06 00:07:02;;;;;;;71.03;11.30;;;3.40;99.90;;;;;;5044819;28;20454;-85
2022/12/06 00:09:31;;;;;;;73.15;13.43;;;3.40;99.90;;;;;;5043347;28;20168;-86
2022/12/06 00:11:57;;;;;;;75.53;13.63;;;3.40;99.90;;;;;;5025061;28;20268;-85
2022/12/06 00:14:24;;;;;;;78.43;13.40;;;3.40;99.90;;;;;;5025674;28;20186;-85
2022/12/06 00:16:50;;;;;;;72.38;12.02;;;3.40;99.90;;;;;;5024963;28;20169;-85
2022/12/06 00:19:19;;;;;;;74.28;12.77;;;3.50;99.90;;;;;;5026159;28;20177;-86
2022/12/06 00:21:46;;;;;;;74.32;11.15;;;3.50;99.90;;;;;;5025767;28;20531;-86
2022/12/06 00:24:14;;;;;;;75.10;12.55;;;3.50;99.90;;;;;;5025077;28;20174;-86
2022/12/06 00:26:42;;;;;;;73.72;12.68;;;3.50;99.90;;;;;;5024663;28;20170;-86
2022/12/06 00:29:11;;;;;;;75.40;13.50;;;3.50;99.90;;;;;;5024892;28;20181;-86
2022/12/06 00:31:37;;;;;;;73.72;13.02;;;3.50;99.90;;;;;;5025135;28;20197;-85
2022/12/06 00:34:03;;;;;;;73.13;12.03;;;3.50;99.90;;;;;;5025512;28;20162;-86
2022/12/06 00:36:32;;;;;;;77.07;13.30;;;3.40;99.90;;;;;;5026343;28;20173;-86
2022/12/06 00:39:04;;;;;;;74.50;12.18;;;3.50;99.90;;;;;;5026254;28;20401;-86
2022/12/06 00:41:30;;;;;;;73.28;13.27;;;3.50;99.90;;;;;;5025509;28;20189;-86
2022/12/06 00:43:56;;;;;;;84.43;14.40;;;3.40;99.90;;;;;;5025510;28;20215;-86
2022/12/06 00:46:25;;;;;;;73.57;13.70;;;3.30;99.90;;;;;;5026299;28;20173;-86
2022/12/06 00:48:52;;;;;;;75.38;13.02;;;3.40;99.90;;;;;;5027368;28;20404;-86
2022/12/06 00:51:20;;;;;;;76.72;13.85;;;3.40;99.90;;;;;;5025979;28;20201;-86
2022/12/06 00:53:46;;;;;;;76.47;15.13;;;3.40;99.90;;;;;;5025153;28;20170;-86
2022/12/06 00:56:12;;;;;;;76.43;16.20;;;3.40;99.90;;;;;;5024771;28;20200;-86
2022/12/06 00:58:38;;;;;;;77.85;15.45;;;3.60;99.90;;;;;;5022962;28;20162;-86
2022/12/06 01:01:14;;;;;;;84.90;14.37;;;3.50;99.90;;;;;;5025271;28;20193;-86
2022/12/06 01:03:40;;;;;;;76.82;14.52;;;3.50;99.90;;;;;;5025195;28;20508;-86
2022/12/06 01:06:08;;;;;;;81.93;16.23;;;3.50;99.90;;;;;;5024942;28;20256;-86
2022/12/06 01:08:36;;;;;;;78.13;16.98;;;3.50;99.90;;;;;;5025291;28;20205;-86
2022/12/06 01:11:02;;;;;;;79.93;15.38;;;3.50;99.90;;;;;;5025095;28;20206;-86
2022/12/06 01:13:28;;;;;;;80.03;15.57;;;3.60;99.90;;;;;;5024294;28;20181;-86
2022/12/06 01:15:55;;;;;;;75.80;14.53;;;3.60;99.90;;;;;;5023899;28;20555;-84
2022/12/06 01:18:21;;;;;;;78.28;15.00;;;3.60;99.90;;;;;;5021073;28;20431;-85
2022/12/06 01:20:47;;;;;;;84.25;15.55;;;3.60;99.90;;;;;;5020427;28;20199;-84
2022/12/06 01:23:14;;;;;;;81.05;18.17;;;3.60;99.90;;;;;;5020575;28;20166;-84
2022/12/06 01:25:49;;;;;;;78.88;17.15;;;3.50;99.90;;;;;;5021117;28;20174;-84
2022/12/06 01:28:14;;;;;;;76.03;14.25;;;3.50;99.90;;;;;;5020013;28;20336;-85
2022/12/06 01:30:40;;;;;;;81.57;16.33;;;3.50;99.90;;;;;;5020125;28;20261;-84
2022/12/06 01:33:05;;;;;;;81.33;17.77;;;3.50;99.90;;;;;;5021944;28;20173;-85
2022/12/06 01:35:31;;;;;;;81.57;17.37;;;3.50;99.90;;;;;;5019160;28;20168;-85
2022/12/06 01:37:57;;;;;;;81.47;16.27;;;3.60;99.90;;;;;;5020805;28;20190;-84
2022/12/06 01:40:22;;;;;;;93.70;19.40;;;3.60;99.90;;;;;;5019712;28;20190;-84
2022/12/06 01:42:48;;;;;;;84.67;16.50;;;3.60;99.90;;;;;;5021437;28;20180;-84
2022/12/06 01:45:14;;;;;;;78.27;16.37;;;3.60;99.90;;;;;;5020251;28;20199;-85
2022/12/06 01:47:42;;;;;;;79.30;17.30;;;3.60;99.90;;;;;;5020210;28;20173;-84
2022/12/06 01:50:19;;;;;;;83.07;17.38;;;3.60;99.90;;;;;;5020707;28;20185;-85
2022/12/06 01:52:54;;;;;;;82.55;17.67;;;3.60;99.90;;;;;;5020300;28;20260;-84
2022/12/06 01:55:26;;;;;;;85.90;17.33;;;3.60;99.90;;;;;;5020486;28;20681;-85
2022/12/06 01:57:56;;;;;;;86.80;20.05;;;3.70;99.90;;;;;;5021221;28;20146;-84
2022/12/06 02:00:21;;;;;;;89.22;17.35;;;3.70;99.90;;;;;;5020827;28;20562;-86
2022/12/06 02:02:47;;;;;;;90.17;18.70;;;3.70;99.90;;;;;;5020681;28;20227;-85
2022/12/06 02:05:15;;;;;;;79.57;17.37;;;3.60;99.90;;;;;;5020790;28;20162;-84
2022/12/06 02:07:42;;;;;;;83.45;18.83;;;3.60;99.90;;;;;;5021128;28;20244;-85
2022/12/06 02:10:09;;;;;;;79.95;17.88;;;3.60;99.90;;;;;;5020399;28;20182;-85
2022/12/06 02:12:35;;;;;;;81.00;20.40;;;3.60;99.90;;;;;;5022099;28;20165;-85
2022/12/06 02:15:01;;;;;;;86.75;18.33;;;3.60;99.90;;;;;;5024479;28;20220;-86
2022/12/06 02:17:51;;;;;;;82.33;18.87;;;3.60;99.90;;;;;;5021486;28;20165;-86
2022/12/06 02:20:35;;;;;;;89.57;19.48;;;3.70;99.90;;;;;;5022365;28;20192;-86
2022/12/06 02:23:31;;;;;;;79.57;17.25;;;3.60;99.90;;;;;;5020106;28;20154;-84
2022/12/06 02:25:57;;;;;;;82.53;18.40;;;3.60;99.90;;;;;;5020002;28;20158;-84
2022/12/06 02:28:51;;;;;;;85.00;20.07;;;3.60;99.90;;;;;;5021210;28;20158;-85
2022/12/06 02:31:20;;;;;;;80.18;18.25;;;3.60;99.90;;;;;;5022785;28;20540;-84
2022/12/06 02:33:51;;;;;;;84.18;20.50;;;3.60;99.90;;;;;;5023382;28;20165;-85
2022/12/06 02:36:31;;;;;;;89.60;19.35;;;3.60;99.90;;;;;;5022219;28;20162;-85
2022/12/06 02:39:02;;;;;;;89.10;21.52;;;3.60;99.90;;;;;;5024485;28;20638;-85
2022/12/06 02:41:37;;;;;;;83.00;20.75;;;3.60;99.90;;;;;;5022141;28;20285;-85
2022/12/06 02:44:06;;;;;;;88.75;21.73;;;3.70;99.90;;;;;;5023985;28;20200;-86
2022/12/06 02:46:37;;;;;;;83.70;19.17;;;3.70;99.90;;;;;;5022611;28;20256;-84
2022/12/06 02:49:05;;;;;;;83.38;18.98;;;3.70;99.90;;;;;;5023023;28;20173;-84
2022/12/06 02:51:34;;;;;;;79.13;18.77;;;3.70;99.90;;;;;;5022077;28;20267;-84
2022/12/06 02:54:04;;;;;;;82.30;18.00;;;3.70;99.90;;;;;;5022237;28;20197;-85
2022/12/06 02:56:31;;;;;;;82.35;20.58;;;3.60;99.90;;;;;;5023996;28;20162;-84
2022/12/06 02:58:57;;;;;;;84.60;19.42;;;3.70;99.90;;;;;;5023667;28;20158;-84
2022/12/06 03:01:36;;;;;;;83.10;20.80;;;3.70;99.90;;;;;;5022873;28;20224;-84
2022/12/06 03:04:17;;;;;;;82.47;17.13;;;3.60;99.90;;;;;;5024189;28;20188;-85
2022/12/06 03:07:04;;;;;;;80.95;19.90;;;3.60;99.90;;;;;;5024139;28;20165;-84
2022/12/06 03:09:43;;;;;;;84.78;20.58;;;3.60;99.90;;;;;;5024900;28;20500;-85
2022/12/06 03:12:23;;;;;;;83.38;18.48;;;3.60;99.90;;;;;;5023589;28;20182;-85
2022/12/06 03:14:57;;;;;;;82.63;18.17;;;3.60;99.90;;;;;;5023877;28;20151;-85
2022/12/06 03:17:50;;;;;;;79.90;16.67;;;3.60;99.90;;;;;;5023414;28;20260;-85
2022/12/06 03:20:48;;;;;;;81.13;18.60;;;3.60;99.90;;;;;;5024007;28;20574;-85
2022/12/06 03:23:19;;;;;;;82.75;19.20;;;3.60;99.90;;;;;;5009321;28;20174;-85
2022/12/06 03:25:47;;;;;;;84.13;17.77;;;3.60;99.90;;;;;;5022653;28;20191;-85
2022/12/06 03:28:15;;;;;;;87.20;18.33;;;3.60;99.90;;;;;;5024360;28;20157;-84
2022/12/06 03:30:47;;;;;;;85.90;18.70;;;3.70;99.90;;;;;;5022770;28;20691;-85
2022/12/06 03:33:14;;;;;;;82.95;17.20;;;3.60;99.90;;;;;;5023848;28;20643;-85
2022/12/06 03:35:42;;;;;;;84.70;19.27;;;3.60;99.90;;;;;;5022541;28;20173;-84
2022/12/06 03:38:17;;;;;;;83.60;19.02;;;3.60;99.90;;;;;;5022440;28;20229;-86
2022/12/06 03:40:47;;;;;;;83.95;18.15;;;3.70;99.90;;;;;;5022937;28;20572;-84
2022/12/06 03:43:13;;;;;;;82.93;19.23;;;3.70;99.90;;;;;;5022420;28;20277;-85
2022/12/06 03:45:52;;;;;;;83.28;18.40;;;3.70;99.90;;;;;;5023866;28;20212;-86
2022/12/06 03:48:28;;;;;;;85.68;19.30;;;3.70;99.90;;;;;;5025505;28;20161;-86
2022/12/06 03:50:59;;;;;;;87.43;19.55;;;3.80;99.90;;;;;;5026859;28;20197;-86
2022/12/06 03:53:25;;;;;;;86.70;19.58;;;3.80;99.90;;;;;;5026987;28;20154;-86
2022/12/06 03:55:51;;;;;;;83.70;20.10;;;3.80;99.90;;;;;;5027263;28;20661;-86
2022/12/06 03:58:16;;;;;;;85.80;19.00;;;3.90;99.90;;;;;;5023573;28;20405;-86
2022/12/06 04:00:43;;;;;;;89.57;20.87;;;3.90;99.90;;;;;;5026035;28;20433;-86
2022/12/06 04:03:08;;;;;;;90.05;20.58;;;3.90;99.90;;;;;;5024675;28;20189;-85
2022/12/06 04:05:34;;;;;;;90.73;22.57;;;3.90;99.90;;;;;;5026541;28;20170;-86
2022/12/06 04:08:00;;;;;;;88.27;19.87;;;3.90;99.90;;;;;;5024902;28;20611;-86
2022/12/06 04:10:25;;;;;;;87.60;22.07;;;3.90;99.90;;;;;;5025026;28;20200;-86
2022/12/06 04:13:00;;;;;;;91.93;20.77;;;3.90;99.90;;;;;;5023010;28;20197;-84
2022/12/06 04:15:33;;;;;;;88.97;20.50;;;3.90;99.90;;;;;;5022706;28;20149;-85
2022/12/06 04:18:14;;;;;;;90.13;20.65;;;3.90;99.90;;;;;;5021423;28;20240;-85
2022/12/06 04:23:25;;;;;;;89.38;20.85;;;3.80;99.90;;;;;;5022657;28;20249;-85
2022/12/06 04:25:51;;;;;;;96.68;23.98;;;3.80;99.90;;;;;;5021637;28;20178;-86
2022/12/06 04:39:13;;;;;;;97.40;21.00;;;3.90;99.90;;;;;;5022988;28;20158;-84
2022/12/06 04:44:24;;;;;;;93.10;22.65;;;3.90;99.90;;;;;;5023003;28;20249;-84
2022/12/06 04:46:50;;;;;;;94.73;20.43;;;3.80;99.90;;;;;;5022179;28;20204;-85
2022/12/06 04:49:15;;;;;;;93.27;20.50;;;3.90;99.90;;;;;;5022735;28;20169;-85
2022/12/06 04:51:41;;;;;;;94.97;18.20;;;3.90;99.90;;;;;;5022982;28;20190;-85
2022/12/06 04:54:07;;;;;;;95.00;22.63;;;3.80;99.90;;;;;;5022609;28;20623;-85
2022/12/06 04:56:33;;;;;;;88.47;20.00;;;3.80;99.90;;;;;;5022363;28;20166;-85
2022/12/06 04:58:58;;;;;;;86.80;19.95;;;3.80;99.90;;;;;;5023433;28;20213;-85
2022/12/06 05:01:24;;;;;;;88.20;21.10;;;3.80;99.90;;;;;;5023039;28;20209;-85
2022/12/06 05:03:50;;;;;;;86.20;18.10;;;3.80;99.90;;;;;;5021684;28;20185;-85
2022/12/06 05:06:15;;;;;;;88.53;19.00;;;3.80;99.90;;;;;;5023700;28;20170;-85
2022/12/06 05:08:41;;;;;;;82.73;18.23;;;3.90;99.90;;;;;;5021604;28;20174;-85
2022/12/06 05:11:07;;;;;;;87.47;17.90;;;3.90;99.90;;;;;;5023551;28;20240;-85
2022/12/06 05:13:32;;;;;;;87.03;18.23;;;3.80;99.90;;;;;;5021131;28;20166;-85
2022/12/06 05:16:03;;;;;;;91.50;19.83;;;3.90;99.90;;;;;;5021585;28;20158;-85
2022/12/06 05:18:30;;;;;;;79.32;16.60;;;4.00;99.90;;;;;;5022830;28;20268;-84
2022/12/06 05:21:01;;;;;;;86.97;19.40;;;3.90;99.90;;;;;;5021504;28;20193;-84
2022/12/06 05:23:28;;;;;;;83.18;18.10;;;4.00;99.90;;;;;;5023109;28;20233;-85
2022/12/06 05:25:58;;;;;;;89.05;19.30;;;4.00;99.90;;;;;;5025499;28;20166;-86
2022/12/06 05:28:28;;;;;;;82.88;18.08;;;4.00;99.90;;;;;;5025250;28;20191;-86
2022/12/06 05:30:54;;;;;;;84.22;19.33;;;4.00;99.90;;;;;;5023684;28;20197;-86
2022/12/06 05:33:20;;;;;;;83.63;19.70;;;4.00;99.90;;;;;;5025137;28;20165;-86
2022/12/06 05:35:45;;;;;;;88.85;21.85;;;4.00;99.90;;;;;;5023637;28;20460;-86
2022/12/06 05:38:11;;;;;;;91.17;19.57;;;4.00;99.90;;;;;;5024901;28;20184;-86
2022/12/06 05:40:39;;;;;;;86.50;17.63;;;3.90;99.90;;;;;;5024026;28;20185;-86
2022/12/06 05:43:05;;;;;;;91.65;19.27;;;4.00;99.90;;;;;;5023680;28;20185;-86
2022/12/06 05:45:31;;;;;;;92.33;21.10;;;3.90;99.90;;;;;;5023080;28;20169;-86
2022/12/06 05:47:57;;;;;;;87.67;18.77;;;4.00;99.90;;;;;;5024414;28;20424;-86
2022/12/06 05:50:22;;;;;;;90.70;19.40;;;4.00;99.90;;;;;;5023019;28;20185;-86
2022/12/06 05:52:52;;;;;;;86.37;18.93;;;4.00;99.90;;;;;;5023460;28;20170;-86
2022/12/06 05:55:18;;;;;;;91.18;19.65;;;4.00;99.90;;;;;;5023772;28;20170;-86
2022/12/06 05:57:43;;;;;;;82.70;18.40;;;4.10;99.90;;;;;;5023051;28;20211;-86
2022/12/06 06:00:09;;;;;;;87.67;20.33;;;4.10;99.90;;;;;;5023393;28;20196;-86
2022/12/06 06:03:18;;;;;;;86.90;16.90;;;4.10;99.90;;;;;;5098855;22;20232;-87
2022/12/06 06:06:51;;;;;;;;;;;;;;;;;;;;;
2022/12/06 06:21:30;;;;;;;83.53;17.85;;;4.10;99.90;;;;;;5056382;28;20197;-86
2022/12/06 06:33:24;;;;;;;;;;;;;;;;;;;;;
2022/12/06 06:36:28;;;;;;;94.88;18.75;;;4.20;99.90;;;;;;5036461;28;20184;-86
2022/12/06 06:52:40;;;;;;;86.60;16.75;;;4.20;99.90;;;;;;5421256;22;20246;-86
2022/12/06 07:02:16;;;;;;;91.95;20.08;;;4.30;99.90;;;;;;5159023;22;20302;-86
2022/12/06 07:05:26;;;;;;;89.82;18.35;;;4.20;99.90;;;;;;5055800;28;20192;-86
2022/12/06 07:11:06;;;;;;;95.90;18.20;;;4.30;99.90;;;;;;5030272;28;20765;-85
2022/12/06 07:14:15;;;;;;;86.22;19.95;;;4.30;99.90;;;;;;5060505;28;20206;-86
2022/12/06 07:17:04;;;;;;;86.95;19.35;;;4.30;99.90;;;;;;5081253;28;20180;-85
2022/12/06 07:19:50;;;;;;;92.82;19.67;;;4.30;99.90;;;;;;5080718;28;20149;-85
2022/12/06 07:22:34;;;;;;;93.18;17.65;;;4.30;99.90;;;;;;5080275;28;20171;-85
2022/12/06 07:25:27;;;;;;;89.75;20.00;;;4.30;99.90;;;;;;5078977;28;20151;-86
2022/12/06 07:27:55;;;;;;;102.32;22.15;;;4.30;99.90;;;;;;5077529;28;20175;-85
2022/12/06 07:31:00;;;;;;;;;;;;;;;;;;;;;
2022/12/06 07:37:24;;;;;;;;;;;;;;;;;;;;;
2022/12/06 07:45:59;;;;;;;96.90;21.10;;;4.20;99.90;;;;;;5080482;28;20147;-87
2022/12/06 07:49:00;;;;;;;;;;;;;;;;;;;;;
2022/12/06 07:52:04;;;;;;;87.53;18.27;;;4.30;99.90;;;;;;5083624;28;20298;-86
2022/12/06 07:55:38;;;;;;;;;;;;;;;;;;;;;
2022/12/06 08:00:40;;;;;;;90.75;20.10;;;4.30;99.90;;;;;;5107630;28;20229;-86
2022/12/06 08:39:57;;;;;;;100.78;20.58;;;4.50;99.90;;;;;;4994882;28;20568;-85
2022/12/06 08:42:52;;;;;;;92.03;19.45;;;4.50;99.90;;;;;;4978068;28;20274;-86
2022/12/06 08:59:28;;;;;;;84.32;17.63;;;4.60;99.90;;;;;;4955480;29;20176;-86
2022/12/06 09:10:04;;;;;;;90.25;16.95;;;4.70;99.90;;;;;;5035473;28;20213;-86
2022/12/06 09:16:35;;;;;;;;;;;;;;;;;;;;;
2022/12/06 09:27:31;;;;;;;;;;;;;;;;;;;;;
2022/12/06 09:41:01;;;;;;;84.05;16.63;;;4.90;99.90;;;;;;4886112;29;20201;-85
2022/12/06 09:47:29;;;;;;;90.53;18.10;;;5.00;99.90;;;;;;4873943;29;20264;-86
2022/12/06 09:50:24;;;;;;;88.78;16.92;;;5.00;99.90;;;;;;4954227;28;20194;-86
2022/12/06 09:53:56;;;;;;;86.28;16.90;;;5.00;99.90;;;;;;4954352;29;20229;-86
2022/12/06 09:57:22;;;;;;;90.72;18.25;;;5.00;99.90;;;;;;4897492;29;20664;-86
2022/12/06 10:07:43;;;;;;;92.43;16.08;;;5.20;99.90;;;;;;4960124;28;20175;-86
2022/12/06 10:10:51;;;;;;;84.25;18.20;;;5.20;99.90;;;;;;4982482;28;20620;-86
2022/12/06 10:17:12;;;;;;;85.72;17.95;;;5.30;99.90;;;;;;5054533;28;20168;-86
2022/12/06 10:20:26;;;;;;;83.60;15.95;;;5.30;99.90;;;;;;5030537;28;20253;-86
2022/12/06 10:23:22;;;;;;;83.93;17.63;;;5.30;99.90;;;;;;5037349;28;20164;-86
2022/12/06 10:29:28;;;;;;;82.82;17.23;;;5.30;99.90;;;;;;5054329;28;20156;-85
2022/12/06 10:32:17;;;;;;;89.30;16.23;;;5.30;99.90;;;;;;5037014;28;20211;-86
2022/12/06 10:36:02;;;;;;;85.90;16.33;;;5.30;99.90;;;;;;5037119;28;20180;-86
2022/12/06 10:38:41;;;;;;;87.28;18.08;;;5.40;99.90;;;;;;5041697;28;20173;-86
2022/12/06 10:41:39;;;;;;;87.25;15.25;;;5.40;99.90;;;;;;5065437;23;20218;-86
2022/12/06 10:44:50;;;;;;;78.50;14.35;;;5.40;99.90;;;;;;5095612;28;20644;-86
2022/12/06 10:53:27;;;;;;;86.82;15.40;;;5.40;99.90;;;;;;5370297;22;20224;-86
2022/12/06 10:56:38;;;;;;;84.25;15.02;;;5.40;99.90;;;;;;5057564;28;20200;-86
2022/12/06 10:59:55;;;;;;;84.93;14.75;;;5.50;99.90;;;;;;5034790;28;20642;-85
2022/12/06 11:03:11;;;;;;;83.13;15.10;;;5.50;99.90;;;;;;5035935;28;20192;-86
2022/12/06 11:05:44;;;;;;;87.65;15.60;;;5.50;99.90;;;;;;5143325;22;20705;-84
2022/12/06 11:08:17;;;;;;;83.88;16.55;;;5.50;99.90;;;;;;5061808;28;20156;-84
2022/12/06 11:10:45;;;;;;;85.40;15.60;;;5.40;99.90;;;;;;5071156;28;20184;-85
2022/12/06 11:13:39;;;;;;;82.32;15.95;;;5.40;99.90;;;;;;5086101;28;20190;-85
2022/12/06 11:16:16;;;;;;;82.28;15.60;;;5.50;99.90;;;;;;5058875;28;20607;-85
2022/12/06 11:18:42;;;;;;;86.68;17.75;;;5.50;99.90;;;;;;5084452;28;20152;-84
2022/12/06 11:21:32;;;;;;;82.13;16.45;;;5.50;99.90;;;;;;5064917;28;20188;-85
2022/12/06 11:24:25;;;;;;;81.53;15.80;;;5.40;99.90;;;;;;5082866;28;20617;-85
2022/12/06 11:27:15;;;;;;;85.57;15.93;;;5.60;99.90;;;;;;5087155;28;20160;-85
2022/12/06 11:29:42;;;;;;;83.32;17.52;;;5.60;99.90;;;;;;5068181;28;20160;-85
2022/12/06 11:32:11;;;;;;;81.03;15.07;;;5.70;99.90;;;;;;5085138;28;20191;-85
2022/12/06 11:34:48;;;;;;;83.57;15.75;;;5.70;99.90;;;;;;5067583;28;20301;-85
2022/12/06 11:37:23;;;;;;;80.32;14.30;;;5.80;99.90;;;;;;5084976;28;20169;-85
2022/12/06 11:39:53;;;;;;;80.78;15.55;;;5.80;99.90;;;;;;5066231;28;20243;-84
2022/12/06 11:42:24;;;;;;;77.75;13.60;;;5.80;99.90;;;;;;5065107;28;20200;-85
2022/12/06 11:44:57;;;;;;;77.72;12.82;;;5.80;99.90;;;;;;5065365;28;20255;-84
2022/12/06 11:47:23;;;;;;;77.47;13.30;;;5.80;99.90;;;;;;5082386;28;20231;-85
2022/12/06 11:49:53;;;;;;;77.35;12.88;;;5.90;99.90;;;;;;5081736;28;20164;-84
2022/12/06 11:52:25;;;;;;;77.95;13.13;;;5.90;99.90;;;;;;5080996;28;20192;-84
2022/12/06 11:54:56;;;;;;;76.20;12.60;;;5.90;99.90;;;;;;5081087;28;20510;-84
2022/12/06 11:57:47;;;;;;;75.85;12.60;;;6.00;99.90;;;;;;5081876;28;20178;-84
2022/12/06 12:00:17;;;;;;;75.78;12.63;;;6.00;99.90;;;;;;5067761;28;20196;-85
2022/12/06 12:02:45;;;;;;;82.07;12.13;;;6.00;99.90;;;;;;5080109;28;20196;-84
2022/12/06 12:05:19;;;;;;;70.88;11.07;;;6.00;99.90;;;;;;5060438;28;20196;-84
2022/12/06 12:07:58;;;;;;;75.28;12.60;;;6.00;99.90;;;;;;5061340;28;20171;-84
2022/12/06 12:10:37;;;;;;;76.30;11.75;;;6.00;99.90;;;;;;5048025;28;20196;-85
2022/12/06 12:16:05;;;;;;;79.28;13.55;;;6.10;99.90;;;;;;5082808;28;20185;-84
2022/12/06 12:18:36;;;;;;;79.55;14.65;;;6.10;99.90;;;;;;5082497;28;20155;-85
2022/12/06 12:21:05;;;;;;;78.15;14.30;;;6.10;99.90;;;;;;5083535;28;20184;-84
2022/12/06 12:23:35;;;;;;;75.13;12.48;;;6.10;99.90;;;;;;5082028;28;20200;-85
2022/12/06 12:26:03;;;;;;;79.13;12.60;;;6.10;99.90;;;;;;5064332;28;20180;-85
2022/12/06 12:28:31;;;;;;;75.78;10.88;;;5.90;99.90;;;;;;5081175;28;20251;-84
2022/12/06 12:30:59;;;;;;;76.03;12.40;;;5.90;99.90;;;;;;5046585;28;20200;-84
2022/12/06 12:33:29;;;;;;;73.28;12.18;;;5.90;99.90;;;;;;5062844;28;20179;-84
2022/12/06 12:36:07;;;;;;;76.93;14.15;;;6.00;99.90;;;;;;5080361;28;20156;-84
2022/12/06 12:38:39;;;;;;;76.65;12.52;;;6.00;99.90;;;;;;5079969;28;20175;-84
2022/12/06 12:41:23;;;;;;;78.45;14.65;;;6.00;99.90;;;;;;5079938;28;20204;-84
2022/12/06 12:43:57;;;;;;;72.35;11.25;;;6.00;99.90;;;;;;5062136;28;20167;-86
2022/12/06 12:46:24;;;;;;;74.03;12.75;;;5.90;99.90;;;;;;5061199;28;20194;-84
2022/12/06 12:48:51;;;;;;;76.32;12.38;;;6.00;99.90;;;;;;5078986;28;20245;-84
2022/12/06 12:51:44;;;;;;;74.80;12.70;;;6.00;99.90;;;;;;5060485;28;20192;-85
2022/12/06 12:54:36;;;;;;;73.05;13.90;;;6.10;99.90;;;;;;5061383;28;20168;-85
2022/12/06 12:57:12;;;;;;;76.95;13.48;;;6.20;99.90;;;;;;5079559;28;20201;-84
2022/12/06 12:59:42;;;;;;;75.93;12.15;;;6.10;99.90;;;;;;5061770;28;20219;-85
2022/12/06 13:02:22;;;;;;;73.10;13.30;;;6.10;99.90;;;;;;5086952;28;20202;-86
2022/12/06 13:04:52;;;;;;;74.45;13.00;;;6.20;99.90;;;;;;5066699;28;20179;-85
2022/12/06 13:07:39;;;;;;;73.30;12.55;;;6.10;99.90;;;;;;5066104;28;20197;-85
2022/12/06 13:10:19;;;;;;;74.97;12.43;;;6.20;99.90;;;;;;5063585;28;20196;-84
2022/12/06 13:12:51;;;;;;;74.05;13.52;;;6.20;99.90;;;;;;5078957;28;20176;-84
2022/12/06 13:15:46;;;;;;;74.13;11.82;;;6.30;99.90;;;;;;5060107;28;20213;-84
2022/12/06 13:18:47;;;;;;;76.32;12.48;;;6.30;99.90;;;;;;5058492;28;20249;-84
2022/12/06 13:21:33;;;;;;;72.43;11.55;;;6.40;99.90;;;;;;5078459;28;20686;-84
2022/12/06 13:24:10;;;;;;;73.90;12.00;;;6.30;99.90;;;;;;5078255;28;20525;-85
2022/12/06 13:26:52;;;;;;;75.43;12.30;;;6.40;99.90;;;;;;5078982;28;20147;-84
2022/12/06 13:29:36;;;;;;;71.13;11.13;;;6.40;99.90;;;;;;5061168;28;20533;-84
2022/12/06 13:32:15;;;;;;;74.10;12.75;;;6.40;99.90;;;;;;5061128;28;20183;-84
2022/12/06 13:34:55;;;;;;;76.75;12.82;;;6.40;99.90;;;;;;5060897;28;20176;-84
2022/12/06 13:37:52;;;;;;;75.63;12.32;;;6.50;99.90;;;;;;5060832;28;20232;-84
2022/12/06 13:40:46;;;;;;;71.93;10.57;;;6.60;99.90;;;;;;5053217;28;20188;-85
2022/12/06 13:43:24;;;;;;;71.70;12.63;;;6.60;99.90;;;;;;5078546;28;20144;-84
2022/12/06 13:46:27;;;;;;;72.95;12.57;;;6.60;99.90;;;;;;5077906;28;20195;-84
2022/12/06 13:48:58;;;;;;;72.30;12.27;;;6.60;99.90;;;;;;5060687;28;20537;-84
2022/12/06 13:51:30;;;;;;;73.22;12.23;;;6.50;99.90;;;;;;5078182;28;20192;-84
2022/12/06 13:54:05;;;;;;;73.50;11.32;;;6.40;99.90;;;;;;5060559;28;20617;-84
2022/12/06 13:56:33;;;;;;;73.10;14.35;;;6.40;99.90;;;;;;5077908;28;20613;-84
2022/12/06 13:59:02;;;;;;;75.65;14.27;;;6.40;99.90;;;;;;5077640;28;20160;-85
2022/12/06 14:01:48;;;;;;;74.63;14.23;;;6.40;99.90;;;;;;5078198;28;20275;-84
2022/12/06 14:04:26;;;;;;;72.22;12.75;;;6.40;99.90;;;;;;5078548;28;20266;-84
2022/12/06 14:06:58;;;;;;;75.05;14.43;;;6.40;99.90;;;;;;5078188;28;20171;-84
2022/12/06 14:09:30;;;;;;;72.45;12.73;;;6.20;99.90;;;;;;5060414;28;20221;-84
2022/12/06 14:11:59;;;;;;;75.57;12.40;;;6.20;99.90;;;;;;5077861;28;20195;-85
2022/12/06 14:14:26;;;;;;;73.22;12.73;;;6.20;99.90;;;;;;5059998;28;20175;-84
2022/12/06 14:17:01;;;;;;;73.45;13.27;;;6.20;99.90;;;;;;5078115;28;20184;-84
2022/12/06 14:19:27;;;;;;;72.53;12.10;;;6.30;99.90;;;;;;5043766;28;20188;-84
2022/12/06 14:22:03;;;;;;;72.37;12.73;;;6.40;99.90;;;;;;5059947;28;20283;-84
2022/12/06 14:24:30;;;;;;;71.63;10.77;;;6.40;99.90;;;;;;5059387;28;20609;-84
2022/12/06 14:27:18;;;;;;;72.35;12.70;;;6.30;99.90;;;;;;5078372;28;20239;-84
2022/12/06 14:30:12;;;;;;;90.68;14.18;;;6.30;99.90;;;;;;5059741;28;20171;-85
2022/12/06 14:32:48;;;;;;;70.80;12.52;;;6.30;99.90;;;;;;5077470;28;20258;-85
2022/12/06 14:35:23;;;;;;;72.05;12.02;;;6.20;99.90;;;;;;5078993;28;20155;-86
2022/12/06 14:37:55;;;;;;;71.70;10.45;;;6.10;99.90;;;;;;5084800;28;20148;-86
2022/12/06 14:43:00;;;;;;;70.78;11.80;;;6.00;99.90;;;;;;5083053;28;20176;-86
2022/12/06 14:43:23;;;;;;;76.47;10.68;;;5.90;99.90;;;;;;5083534;28;20202;-86
2022/12/06 14:45:51;;;;;;;73.30;13.32;;;5.90;99.90;;;;;;5082547;28;20214;-86
2022/12/06 14:48:17;;;;;;;74.45;10.73;;;5.80;99.90;;;;;;5081842;28;20530;-85
2022/12/06 14:50:50;;;;;;;69.75;10.18;;;5.70;99.90;;;;;;5062487;28;20187;-85
2022/12/06 14:53:37;;;;;;;70.32;9.90;;;5.60;99.90;;;;;;5080490;28;20160;-86
2022/12/06 14:56:23;;;;;;;71.65;10.02;;;5.60;99.90;;;;;;5079996;28;20206;-85
2022/12/06 14:58:48;;;;;;;75.60;12.07;;;5.50;99.90;;;;;;5061540;28;20215;-84
2022/12/06 15:01:24;;;;;;;75.33;9.67;;;5.50;99.90;;;;;;5078824;28;20187;-85
2022/12/06 15:04:06;;;;;;;69.95;10.10;;;5.40;99.90;;;;;;5078215;28;20167;-85
2022/12/06 15:06:33;;;;;;;74.38;11.60;;;5.40;99.90;;;;;;5078084;28;20187;-84
2022/12/06 15:08:59;;;;;;;77.28;11.85;;;5.40;99.90;;;;;;5078257;28;20168;-84
2022/12/06 15:14:28;;;;;;;73.30;13.68;;;5.30;99.90;;;;;;5078010;28;20242;-84
2022/12/06 15:16:58;;;;;;;78.45;14.05;;;5.20;99.90;;;;;;5060728;28;20190;-84
2022/12/06 15:19:24;;;;;;;71.65;13.93;;;5.20;99.90;;;;;;5078066;28;20168;-85
2022/12/06 15:21:52;;;;;;;74.38;14.07;;;5.20;99.90;;;;;;5059677;28;20203;-84
2022/12/06 15:24:21;;;;;;;72.90;14.75;;;5.20;99.90;;;;;;5060003;28;20175;-84
2022/12/06 15:26:46;;;;;;;70.88;14.43;;;5.20;99.90;;;;;;5059699;28;20194;-84
2022/12/06 15:29:12;;;;;;;75.10;13.97;;;5.20;99.90;;;;;;5077367;28;20243;-84
2022/12/06 15:31:41;;;;;;;71.93;12.20;;;5.20;99.90;;;;;;5059506;28;20199;-84
2022/12/06 15:34:21;;;;;;;70.70;13.52;;;5.20;99.90;;;;;;5077216;28;20190;-84
2022/12/06 15:36:47;;;;;;;70.60;14.50;;;5.20;99.90;;;;;;5078743;28;20144;-84
2022/12/06 15:39:13;;;;;;;70.57;11.70;;;5.20;99.90;;;;;;5062559;28;20163;-84
2022/12/06 15:41:40;;;;;;;74.10;13.83;;;5.20;99.90;;;;;;5080676;28;20858;-84
2022/12/06 15:44:14;;;;;;;71.38;13.63;;;5.20;99.90;;;;;;5080840;28;20160;-84
2022/12/06 15:46:43;;;;;;;70.90;12.02;;;5.20;99.90;;;;;;5080888;28;20156;-84
2022/12/06 15:49:13;;;;;;;74.90;14.68;;;5.20;99.90;;;;;;5062885;28;20168;-84
2022/12/06 15:51:39;;;;;;;73.05;13.32;;;5.20;99.90;;;;;;5080503;28;20226;-85
2022/12/06 15:54:06;;;;;;;73.20;14.83;;;5.20;99.90;;;;;;5080637;28;20168;-84
2022/12/06 15:56:32;;;;;;;73.68;13.25;;;5.20;99.90;;;;;;5080374;28;20156;-85
2022/12/06 15:58:57;;;;;;;72.93;13.50;;;5.30;99.90;;;;;;5081487;28;20649;-84
2022/12/06 16:01:32;;;;;;;77.50;16.07;;;5.40;99.90;;;;;;5063233;28;20191;-85
2022/12/06 16:03:58;;;;;;;79.53;14.55;;;5.50;99.90;;;;;;5063488;28;20216;-85
2022/12/06 16:06:25;;;;;;;79.37;14.87;;;5.60;99.90;;;;;;5079788;28;20218;-84
2022/12/06 16:08:51;;;;;;;76.60;15.88;;;5.60;99.90;;;;;;5080261;28;20414;-84
2022/12/06 16:11:20;;;;;;;79.50;15.30;;;5.50;99.90;;;;;;5065300;28;20200;-86
2022/12/06 16:13:46;;;;;;;78.47;14.77;;;5.50;99.90;;;;;;5070487;28;20410;-85
2022/12/06 16:16:12;;;;;;;81.63;15.98;;;5.50;99.90;;;;;;5069180;28;20168;-86
2022/12/06 16:18:38;;;;;;;81.22;15.48;;;5.50;99.90;;;;;;5067972;28;20160;-85
2022/12/06 16:21:04;;;;;;;77.40;15.17;;;5.50;99.90;;;;;;5067024;28;20233;-86
2022/12/06 16:26:15;;;;;;;78.57;14.52;;;5.50;99.90;;;;;;5083821;28;20155;-84
2022/12/06 16:28:41;;;;;;;79.88;13.73;;;5.50;99.90;;;;;;5083006;28;20213;-85
2022/12/06 16:31:16;;;;;;;79.07;17.00;;;5.50;99.90;;;;;;5064451;28;20192;-85
2022/12/06 16:33:42;;;;;;;77.45;14.70;;;5.50;99.90;;;;;;5063848;28;20625;-85
2022/12/06 16:36:18;;;;;;;76.07;16.27;;;5.50;99.90;;;;;;5081906;28;20162;-85